CST,Max TemperatureF,Mean TemperatureF,Min TemperatureF,Max Dew PointF,MeanDew PointF,Min DewpointF,Max Humidity, Mean Humidity, Min Humidity, Max Sea Level PressureIn, Mean Sea Level PressureIn, Min Sea Level PressureIn, Max VisibilityMiles, Mean VisibilityMiles, Min VisibilityMiles, Max Wind SpeedMPH, Mean Wind SpeedMPH, Max Gust SpeedMPH,PrecipitationIn, CloudCover, Events, WindDirDegrees
2013-2-1,14,5,-4,11,-1,-11,84,74,63,30.42,30.30,30.15,10,7,1,20,10,24,0.08,4,Snow,237
2013-2-2,22,14,6,18,9,1,88,75,61,30.16,30.10,30.02,10,7,2,22,8,26,0.06,8,Snow,281
2013-2-3,21,15,8,18,11,4,92,77,62,30.09,30.04,29.97,10,6,1,21,7,26,0.07,8,Snow,255
2013-2-4,23,15,6,18,13,3,91,79,67,30.04,29.96,29.87,10,7,1,16,9,20,0.21,7,Snow,37
2013-2-5,31,16,1,25,18,0,92,81,69,30.12,29.92,29.80,10,6,0,17,7,22,0.06,8,Snow,252
2013-2-6,36,21,5,30,20,2,100,84,68,30.26,30.18,30.10,10,8,2,18,7,25,0.00,5,,129
2013-2-7,34,30,25,33,31,22,96,93,89,30.10,29.98,29.89,8,2,0,25,9,31,0.65,8,Fog-Rain-Snow,81
2013-2-8,26,23,20,21,18,16,91,83,74,30.43,30.31,30.04,10,10,6,23,10,30,T,7,Snow,17
2013-2-9,31,26,20,26,23,18,92,85,78,30.43,30.28,30.09,10,9,7,22,10,29,0.00,7,,159
2013-2-10,45,35,25,41,34,23,100,81,62,30.09,29.70,29.45,10,6,2,29,16,39,0.57,7,Rain,158
2013-2-11,41,34,26,30,24,19,76,70,63,30.08,29.77,29.49,10,8,1,33,21,48,T,8,Snow,266
2013-2-12,32,28,23,22,20,17,88,79,69,30.14,30.06,29.93,10,10,7,18,9,23,T,6,Snow,255
2013-2-13,42,31,20,32,27,18,96,81,65,29.91,29.80,29.73,10,9,5,15,5,17,0.00,4,,198
2013-2-14,39,35,31,31,28,23,82,71,59,30.02,29.81,29.64,10,10,10,26,12,32,T,7,Rain,278
2013-2-15,32,24,16,26,13,7,85,66,46,30.25,30.18,30.01,10,10,8,21,12,25,T,3,Snow,324
2013-2-16,20,15,9,7,4,2,76,63,49,30.24,30.22,30.15,10,10,10,16,8,23,0.00,2,,327
2013-2-17,31,19,6,20,11,3,88,67,46,30.25,30.15,29.96,10,10,10,20,7,25,0.00,4,,156
2013-2-18,52,37,22,45,32,17,96,81,65,29.94,29.60,29.46,10,7,1,28,16,35,0.45,7,Rain-Snow,222
2013-2-19,22,15,8,16,5,0,84,75,66,30.27,29.93,29.67,10,5,1,30,20,38,0.01,6,Snow,291
2013-2-20,20,13,5,10,5,-2,88,75,62,30.44,30.39,30.30,10,10,10,13,8,,0.00,2,,323
2013-2-21,27,19,10,25,18,8,92,86,80,30.43,30.23,29.94,10,8,0,23,10,31,0.09,7,Fog-Snow,58
2013-2-22,32,29,25,28,24,21,92,85,78,29.96,29.87,29.80,10,5,1,18,10,24,0.20,8,Snow,161
2013-2-23,28,24,20,21,18,15,88,78,68,30.01,29.96,29.90,10,10,8,18,9,23,T,7,Snow,255
2013-2-24,36,22,8,21,16,7,100,76,51,30.18,30.13,30.02,10,9,6,7,1,15,0.00,1,,175
2013-2-25,40,28,15,27,22,12,92,73,54,30.20,30.12,29.99,10,9,5,16,5,21,0.00,4,,105
2013-2-26,35,33,31,31,28,25,100,82,64,29.97,29.67,29.59,10,5,0,30,20,39,0.40,8,Snow,45
2013-2-27,34,32,30,30,29,26,100,91,82,29.79,29.67,29.58,9,4,1,20,14,25,0.12,8,Snow,350
2013-2-28,35,31,27,30,26,19,89,79,69,30.14,29.99,29.78,10,9,2,20,13,24,0.01,8,Snow,10